createdAt,value
2022-12-28T00:00:42.246Z,1.61
2022-12-28T00:01:39.204Z,1.58
2022-12-28T00:02:39.176Z,1.61
2022-12-28T00:03:39.028Z,1.64
2022-12-28T00:04:39.043Z,1.67
2022-12-28T00:05:39.064Z,1.68
2022-12-28T00:06:39.031Z,1.74
2022-12-28T00:07:41.182Z,1.71
2022-12-28T00:08:39.019Z,1.71
2022-12-28T00:09:39.034Z,1.67
2022-12-28T00:11:30.874Z,1.74
2022-12-28T00:11:43.560Z,1.75
2022-12-28T00:12:40.730Z,1.68
2022-12-28T00:13:40.738Z,1.64
2022-12-28T00:14:40.708Z,1.58
2022-12-28T00:15:40.715Z,1.67
2022-12-28T00:16:40.880Z,1.71
2022-12-28T00:17:40.756Z,1.68
2022-12-28T00:18:40.754Z,1.67
2022-12-28T00:19:40.759Z,1.71
2022-12-28T00:20:40.786Z,1.68
2022-12-28T00:21:40.810Z,1.71
2022-12-28T00:22:43.901Z,1.63
2022-12-28T00:23:40.747Z,1.63
2022-12-28T00:24:40.743Z,1.64
2022-12-28T00:25:40.744Z,1.64
2022-12-28T00:26:40.765Z,1.56
2022-12-28T00:27:40.757Z,1.57
2022-12-28T00:28:40.741Z,1.56
2022-12-28T00:29:40.760Z,1.57
2022-12-28T00:30:40.758Z,1.53
2022-12-28T00:31:41.047Z,1.53
2022-12-28T00:32:40.783Z,1.52
2022-12-28T00:33:40.757Z,1.42
2022-12-28T00:34:40.756Z,1.52
2022-12-28T00:35:40.761Z,1.53
2022-12-28T00:37:16.471Z,1.48
2022-12-28T00:37:40.795Z,1.53
2022-12-28T00:38:40.785Z,1.58
2022-12-28T00:39:40.765Z,1.66
2022-12-28T00:40:40.791Z,1.58
2022-12-28T00:41:40.820Z,1.63
2022-12-28T00:42:40.919Z,1.61
2022-12-28T00:43:40.788Z,1.61
2022-12-28T00:44:40.777Z,1.61
2022-12-28T00:45:40.915Z,1.64
2022-12-28T00:46:40.782Z,1.56
2022-12-28T00:47:40.834Z,1.61
2022-12-28T00:48:40.792Z,1.58
2022-12-28T00:49:40.782Z,1.57
2022-12-28T00:50:40.794Z,1.53
2022-12-28T00:51:40.791Z,1.61
2022-12-28T00:52:40.914Z,1.63
2022-12-28T00:53:43.602Z,1.57
2022-12-28T00:54:43.861Z,1.48
2022-12-28T00:55:40.791Z,1.53
2022-12-28T00:56:40.781Z,1.49
2022-12-28T00:57:40.852Z,1.56
2022-12-28T00:58:40.818Z,1.61
2022-12-28T00:59:40.787Z,1.66
2022-12-28T01:00:40.935Z,1.58
2022-12-28T01:01:41.139Z,1.63
2022-12-28T01:02:40.943Z,1.67
2022-12-28T01:03:40.808Z,1.74
2022-12-28T01:04:40.784Z,1.66
2022-12-28T01:05:43.873Z,1.6
2022-12-28T01:06:40.808Z,1.61
2022-12-28T01:07:40.844Z,1.58
2022-12-28T01:08:40.868Z,1.58
2022-12-28T01:09:40.815Z,1.64
2022-12-28T01:10:40.796Z,1.63
2022-12-28T01:11:40.839Z,1.67
2022-12-28T01:12:43.083Z,1.64
2022-12-28T01:13:40.825Z,1.6
2022-12-28T01:14:40.859Z,1.71
2022-12-28T01:15:40.818Z,1.75
2022-12-28T01:16:43.872Z,1.67
2022-12-28T01:17:40.878Z,1.75
2022-12-28T01:18:40.835Z,1.79
2022-12-28T01:19:40.815Z,1.68
2022-12-28T01:20:40.826Z,1.71
2022-12-28T01:21:40.862Z,1.84
2022-12-28T01:22:40.882Z,1.81
2022-12-28T01:23:40.843Z,1.84
2022-12-28T01:24:40.903Z,1.82
2022-12-28T01:25:40.863Z,1.89
2022-12-28T01:26:40.851Z,1.89
2022-12-28T01:27:44.018Z,1.85
2022-12-28T01:28:40.838Z,1.92
2022-12-28T01:29:40.840Z,1.86
2022-12-28T01:30:43.704Z,1.82
2022-12-28T01:31:40.994Z,1.86
2022-12-28T01:32:40.894Z,1.89
2022-12-28T01:33:40.863Z,1.86
2022-12-28T01:34:40.853Z,1.85
2022-12-28T01:35:40.869Z,1.93
2022-12-28T01:36:40.857Z,1.95
2022-12-28T01:37:40.890Z,1.82
2022-12-28T01:38:43.655Z,1.92
2022-12-28T01:39:40.874Z,1.89
2022-12-28T01:40:40.917Z,1.86
2022-12-28T01:41:40.869Z,1.98
2022-12-28T01:42:40.884Z,1.89
2022-12-28T01:43:43.790Z,2
2022-12-28T01:44:40.857Z,1.95
2022-12-28T01:45:41.028Z,1.89
2022-12-28T01:46:40.869Z,1.92
2022-12-28T01:47:40.944Z,1.93
2022-12-28T01:48:40.853Z,1.95
2022-12-28T01:49:43.680Z,2.03
2022-12-28T01:50:40.856Z,1.95
2022-12-28T01:51:40.916Z,1.85
2022-12-28T01:52:40.912Z,1.98
2022-12-28T01:53:40.882Z,2.03
2022-12-28T01:54:43.691Z,1.81
2022-12-28T01:55:40.900Z,1.92
2022-12-28T01:56:40.937Z,1.92
2022-12-28T01:57:40.916Z,1.92
2022-12-28T01:58:40.996Z,1.98
2022-12-28T01:59:40.877Z,2.01
2022-12-28T02:00:43.900Z,2.03
2022-12-28T02:01:41.272Z,2.08
2022-12-28T02:02:41.650Z,2.04
2022-12-28T02:03:40.883Z,2.1
2022-12-28T02:04:40.917Z,2.03
2022-12-28T02:05:43.896Z,2.04
2022-12-28T02:06:40.888Z,2.08
2022-12-28T02:07:40.956Z,2.07
2022-12-28T02:08:40.970Z,2.12
2022-12-28T02:09:40.910Z,2.08
2022-12-28T02:10:50.452Z,2.04
2022-12-28T02:11:50.551Z,2.08
2022-12-28T02:12:47.884Z,2.12
2022-12-28T02:13:47.666Z,2.07
2022-12-28T02:14:47.682Z,2.03
2022-12-28T02:15:47.811Z,2.12
2022-12-28T02:16:48.003Z,2.15
2022-12-28T02:17:50.553Z,2.16
2022-12-28T02:18:48.367Z,2.22
2022-12-28T02:19:47.696Z,2.22
2022-12-28T02:20:47.706Z,2.19
2022-12-28T02:21:47.697Z,2.18
2022-12-28T02:22:50.746Z,2.07
2022-12-28T02:23:47.722Z,2.21
2022-12-28T02:24:47.694Z,2.14
2022-12-28T02:25:47.698Z,2.22
2022-12-28T02:26:47.800Z,2.22
2022-12-28T02:27:47.733Z,2.16
2022-12-28T02:28:47.715Z,2.21
2022-12-28T02:29:47.733Z,2.23
2022-12-28T02:30:47.871Z,2.22
2022-12-28T02:31:47.723Z,2.23
2022-12-28T02:32:47.724Z,2.28
2022-12-28T02:33:50.509Z,2.18
2022-12-28T02:34:47.721Z,2.19
2022-12-28T02:35:47.703Z,2.21
2022-12-28T02:36:47.701Z,2.19
2022-12-28T02:37:50.453Z,2.16
2022-12-28T02:38:47.738Z,2.21
2022-12-28T02:39:47.724Z,2.21
2022-12-28T02:40:47.707Z,2.19
2022-12-28T02:41:47.733Z,2.12
2022-12-28T02:42:47.735Z,2.21
2022-12-28T02:43:47.809Z,2.12
2022-12-28T02:44:47.738Z,2.16
2022-12-28T02:45:48.026Z,2.08
2022-12-28T02:46:47.734Z,2.21
2022-12-28T02:47:47.721Z,2.16
2022-12-28T02:48:47.776Z,2.18
2022-12-28T02:49:47.771Z,2.21
2022-12-28T02:50:47.737Z,2.19
2022-12-28T02:51:47.741Z,2.32
2022-12-28T02:52:47.735Z,2.22
2022-12-28T02:53:47.754Z,2.19
2022-12-28T02:54:47.742Z,2.23
2022-12-28T02:55:47.744Z,2.21
2022-12-28T02:56:47.735Z,2.23
2022-12-28T02:57:47.744Z,2.22
2022-12-28T02:58:47.741Z,2.22
2022-12-28T02:59:47.790Z,2.15
2022-12-28T03:00:50.520Z,2.25
2022-12-28T03:01:48.129Z,2.19
2022-12-28T03:02:48.178Z,2.3
2022-12-28T03:03:47.743Z,2.22
2022-12-28T03:04:47.769Z,2.22
2022-12-28T03:05:50.813Z,2.21
2022-12-28T03:06:47.756Z,2.21
2022-12-28T03:07:47.755Z,2.19
2022-12-28T03:08:47.760Z,2.34
2022-12-28T03:09:47.763Z,2.26
2022-12-28T03:10:47.743Z,2.33
2022-12-28T03:11:47.758Z,2.26
2022-12-28T03:12:47.784Z,2.25
2022-12-28T03:13:47.800Z,2.36
2022-12-28T03:14:47.797Z,2.32
2022-12-28T03:15:48.045Z,2.36
2022-12-28T03:16:50.795Z,2.33
2022-12-28T03:17:47.792Z,2.33
2022-12-28T03:18:47.778Z,2.33
2022-12-28T03:19:47.779Z,2.34
2022-12-28T03:20:47.828Z,2.34
2022-12-28T03:21:47.818Z,2.32
2022-12-28T03:22:47.783Z,2.36
2022-12-28T03:23:47.795Z,2.3
2022-12-28T03:24:47.799Z,2.32
2022-12-28T03:25:47.776Z,2.36
2022-12-28T03:26:47.795Z,2.26
2022-12-28T03:27:50.618Z,2.28
2022-12-28T03:28:47.775Z,2.33
2022-12-28T03:29:47.801Z,2.32
2022-12-28T03:30:47.919Z,2.39
2022-12-28T03:31:47.882Z,2.32
2022-12-28T03:32:47.819Z,2.34
2022-12-28T03:33:47.844Z,2.36
2022-12-28T03:34:47.788Z,2.3
2022-12-28T03:35:47.787Z,2.33
2022-12-28T03:36:47.805Z,2.37
2022-12-28T03:37:47.844Z,2.4
2022-12-28T03:38:50.686Z,2.32
2022-12-28T03:39:47.821Z,2.43
2022-12-28T03:40:47.802Z,2.46
2022-12-28T03:41:47.806Z,2.46
2022-12-28T03:42:47.903Z,2.44
2022-12-28T03:43:47.859Z,2.43
2022-12-28T03:44:47.804Z,2.51
2022-12-28T03:45:51.635Z,2.52
2022-12-28T03:46:47.954Z,2.43
2022-12-28T03:47:47.971Z,2.4
2022-12-28T03:48:47.873Z,2.51
2022-12-28T03:49:50.615Z,2.52
2022-12-28T03:50:47.837Z,2.4
2022-12-28T03:51:47.828Z,2.51
2022-12-28T03:52:47.824Z,2.47
2022-12-28T03:53:47.871Z,2.55
2022-12-28T03:54:47.827Z,2.46
2022-12-28T03:55:47.894Z,2.47
2022-12-28T03:56:47.837Z,2.46
2022-12-28T03:57:47.830Z,2.55
2022-12-28T03:58:48.065Z,2.5
2022-12-28T03:59:47.857Z,2.62
2022-12-28T04:00:50.856Z,2.51
2022-12-28T04:01:48.282Z,2.51
2022-12-28T04:02:48.329Z,2.54
2022-12-28T04:03:47.943Z,2.54
2022-12-28T04:04:47.838Z,2.51
2022-12-28T04:05:47.850Z,2.58
2022-12-28T04:06:47.854Z,2.55
2022-12-28T04:07:47.848Z,2.47
2022-12-28T04:08:47.919Z,2.37
2022-12-28T04:09:47.895Z,2.41
2022-12-28T04:10:47.861Z,2.55
2022-12-28T04:11:50.976Z,2.4
2022-12-28T04:12:47.869Z,2.58
2022-12-28T04:13:47.899Z,2.4
2022-12-28T04:14:47.865Z,2.57
2022-12-28T04:15:48.069Z,2.47
2022-12-28T04:16:47.921Z,2.51
2022-12-28T04:17:47.864Z,2.47
2022-12-28T04:18:47.928Z,2.39
2022-12-28T04:19:47.916Z,2.43
2022-12-28T04:20:47.873Z,2.51
2022-12-28T04:21:47.869Z,2.37
2022-12-28T04:22:50.673Z,2.4
2022-12-28T04:23:47.895Z,2.46
2022-12-28T04:24:47.876Z,2.3
2022-12-28T04:25:47.915Z,2.34
2022-12-28T04:26:47.891Z,2.36
2022-12-28T04:27:47.879Z,2.32
2022-12-28T04:28:47.905Z,2.3
2022-12-28T04:29:47.909Z,2.22
2022-12-28T04:30:47.920Z,2.28
2022-12-28T04:31:48.110Z,2.22
2022-12-28T04:32:47.900Z,2.25
2022-12-28T04:33:50.676Z,2.21
2022-12-28T04:34:53.381Z,2.3
2022-12-28T04:35:47.923Z,2.22
2022-12-28T04:36:47.933Z,2.25
2022-12-28T04:37:47.907Z,2.22
2022-12-28T04:38:48.865Z,2.26
2022-12-28T04:40:01.403Z,2.15
2022-12-28T04:40:47.919Z,2.16
2022-12-28T04:41:47.924Z,2.12
2022-12-28T04:42:47.921Z,2.14
2022-12-28T04:43:47.933Z,2.08
2022-12-28T04:44:50.813Z,2.08
2022-12-28T04:45:47.910Z,2.23
2022-12-28T04:46:48.068Z,2.22
2022-12-28T04:47:47.899Z,2.19
2022-12-28T04:48:47.932Z,2.36
2022-12-28T04:49:50.959Z,2.36
2022-12-28T04:50:47.948Z,2.5
2022-12-28T04:51:47.946Z,2.46
2022-12-28T04:52:47.925Z,2.51
2022-12-28T04:53:48.017Z,2.58
2022-12-28T04:54:47.917Z,2.46
2022-12-28T04:55:47.948Z,2.46
2022-12-28T04:56:48.011Z,2.62
2022-12-28T04:57:47.979Z,2.64
2022-12-28T04:58:47.940Z,2.5
2022-12-28T04:59:47.953Z,2.52
2022-12-28T05:00:50.953Z,2.57
2022-12-28T05:01:48.653Z,2.62
2022-12-28T05:02:51.251Z,2.54
2022-12-28T05:03:57.943Z,2.59
2022-12-28T05:04:47.968Z,2.64
2022-12-28T05:05:47.949Z,2.76
2022-12-28T05:06:47.978Z,2.7
2022-12-28T05:07:47.969Z,2.68
2022-12-28T05:08:48.000Z,2.76
2022-12-28T05:09:47.955Z,2.75
2022-12-28T05:10:47.967Z,2.75
2022-12-28T05:11:47.932Z,2.7
2022-12-28T05:12:47.952Z,2.73
2022-12-28T05:13:47.987Z,2.72
2022-12-28T05:14:47.956Z,2.69
2022-12-28T05:15:48.300Z,2.73
2022-12-28T05:16:47.972Z,2.75
2022-12-28T05:17:47.962Z,2.82
2022-12-28T05:18:47.999Z,2.87
2022-12-28T05:19:47.985Z,2.82
2022-12-28T05:20:47.988Z,2.79
2022-12-28T05:21:47.976Z,2.9
2022-12-28T05:22:47.997Z,2.77
2022-12-28T05:23:48.015Z,2.9
2022-12-28T05:24:47.984Z,2.87
2022-12-28T05:25:47.974Z,2.93
2022-12-28T05:26:48.021Z,2.88
2022-12-28T05:27:51.145Z,2.88
2022-12-28T05:28:48.015Z,2.8
2022-12-28T05:29:48.010Z,2.87
2022-12-28T05:30:47.991Z,2.94
2022-12-28T05:31:48.263Z,2.98
2022-12-28T05:32:51.150Z,2.88
2022-12-28T05:33:48.019Z,2.95
2022-12-28T05:34:48.045Z,2.98
2022-12-28T05:35:47.979Z,3.01
2022-12-28T05:36:48.016Z,2.98
2022-12-28T05:37:48.021Z,2.94
2022-12-28T05:38:56.792Z,3
2022-12-28T05:39:48.032Z,3.05
2022-12-28T05:40:48.007Z,2.98
2022-12-28T05:41:48.039Z,3
2022-12-28T05:42:54.247Z,3.01
2022-12-28T05:43:50.851Z,3.08
2022-12-28T05:44:48.028Z,3.05
2022-12-28T05:45:48.033Z,3.08
2022-12-28T05:46:48.200Z,3.12
2022-12-28T05:47:48.010Z,3.12
2022-12-28T05:48:48.037Z,3.18
2022-12-28T05:49:48.017Z,3.16
2022-12-28T05:50:48.159Z,3.18
2022-12-28T05:51:48.032Z,3.26
2022-12-28T05:52:48.040Z,3.16
2022-12-28T05:53:48.025Z,3.24
2022-12-28T05:54:51.114Z,3.21
2022-12-28T05:55:48.139Z,3.16
2022-12-28T05:56:48.040Z,3.16
2022-12-28T05:57:48.026Z,3.3
2022-12-28T05:58:48.031Z,3.24
2022-12-28T05:59:48.043Z,3.33
2022-12-28T06:00:48.028Z,3.3
2022-12-28T06:01:48.675Z,3.36
2022-12-28T06:02:48.366Z,3.4
2022-12-28T06:03:48.059Z,3.31
2022-12-28T06:04:48.040Z,3.43
2022-12-28T06:05:51.098Z,3.34
2022-12-28T06:06:48.110Z,3.34
2022-12-28T06:07:48.041Z,3.41
2022-12-28T06:08:48.059Z,3.48
2022-12-28T06:09:48.044Z,3.46
2022-12-28T06:10:48.077Z,3.48
2022-12-28T06:11:48.105Z,3.52
2022-12-28T06:12:48.084Z,3.49
2022-12-28T06:13:48.169Z,3.53
2022-12-28T06:14:48.047Z,3.45
2022-12-28T06:15:48.123Z,3.34
2022-12-28T06:16:51.385Z,3.43
2022-12-28T06:17:48.084Z,3.52
2022-12-28T06:18:48.059Z,3.56
2022-12-28T06:19:48.048Z,3.49
2022-12-28T06:20:51.170Z,3.53
2022-12-28T06:21:48.159Z,3.5
2022-12-28T06:22:48.076Z,3.53
2022-12-28T06:23:48.066Z,3.48
2022-12-28T06:24:48.065Z,3.46
2022-12-28T06:25:48.218Z,3.4
2022-12-28T06:26:48.108Z,3.56
2022-12-28T06:27:51.047Z,3.56
2022-12-28T06:28:48.077Z,3.56
2022-12-28T06:29:48.094Z,3.52
2022-12-28T06:30:55.324Z,3.59
2022-12-28T06:31:48.273Z,3.59
2022-12-28T06:32:48.109Z,3.56
2022-12-28T06:33:48.116Z,3.56
2022-12-28T06:34:48.076Z,3.58
2022-12-28T06:35:48.079Z,3.56
2022-12-28T06:36:48.230Z,3.67
2022-12-28T06:37:48.094Z,3.55
2022-12-28T06:38:51.171Z,3.67
2022-12-28T06:39:48.093Z,3.63
2022-12-28T06:41:21.194Z,3.58
2022-12-28T06:41:48.108Z,3.56
2022-12-28T06:42:48.134Z,3.63
2022-12-28T06:43:48.157Z,3.59
2022-12-28T06:44:49.511Z,3.63
2022-12-28T06:45:48.212Z,3.67
2022-12-28T06:46:48.134Z,3.7
2022-12-28T06:47:48.103Z,3.61
2022-12-28T06:48:48.171Z,3.61
2022-12-28T06:49:50.931Z,3.58
2022-12-28T06:50:48.113Z,3.67
2022-12-28T06:51:48.128Z,3.68
2022-12-28T06:52:48.097Z,3.66
2022-12-28T06:53:48.174Z,3.61
2022-12-28T06:54:48.141Z,3.67
2022-12-28T06:55:48.132Z,3.71
2022-12-28T06:56:48.147Z,3.58
2022-12-28T06:57:48.125Z,3.67
2022-12-28T06:58:48.243Z,3.71
2022-12-28T06:59:48.163Z,3.74
2022-12-28T07:00:51.243Z,3.67
2022-12-28T07:01:48.816Z,3.67
2022-12-28T07:02:48.477Z,3.74
2022-12-28T07:03:48.220Z,3.73
2022-12-28T07:04:48.154Z,3.74
2022-12-28T07:05:51.130Z,3.78
2022-12-28T07:06:48.160Z,3.77
2022-12-28T07:07:48.148Z,3.73
2022-12-28T07:08:48.130Z,3.76
2022-12-28T07:09:48.179Z,3.78
2022-12-28T07:10:48.144Z,3.78
2022-12-28T07:11:51.215Z,3.74
2022-12-28T07:12:48.160Z,3.76
2022-12-28T07:13:48.120Z,3.82
2022-12-28T07:14:48.177Z,3.76
2022-12-28T07:15:48.168Z,3.84
2022-12-28T07:16:50.960Z,3.81
2022-12-28T07:17:48.156Z,3.84
2022-12-28T07:18:48.168Z,3.78
2022-12-28T07:19:48.151Z,3.77
2022-12-28T07:20:48.202Z,3.82
2022-12-28T07:21:48.195Z,3.77
2022-12-28T07:22:48.145Z,3.82
2022-12-28T07:23:48.164Z,3.81
2022-12-28T07:24:49.172Z,3.95
2022-12-28T07:25:48.157Z,3.84
2022-12-28T07:26:48.159Z,3.81
2022-12-28T07:27:50.953Z,3.81
2022-12-28T07:28:48.162Z,3.82
2022-12-28T07:29:48.181Z,3.89
2022-12-28T07:30:48.344Z,3.91
2022-12-28T07:31:50.490Z,3.85
2022-12-28T07:32:48.165Z,3.92
2022-12-28T07:33:48.208Z,3.89
2022-12-28T07:34:48.180Z,3.85
2022-12-28T07:35:48.162Z,3.85
2022-12-28T07:36:48.214Z,3.99
2022-12-28T07:37:48.206Z,4
2022-12-28T07:38:48.204Z,4
2022-12-28T07:39:48.188Z,4.06
2022-12-28T07:40:48.208Z,4.1
2022-12-28T07:41:48.196Z,4.12
2022-12-28T07:42:50.696Z,4.13
2022-12-28T07:43:48.197Z,4.1
2022-12-28T07:44:53.485Z,4.13
2022-12-28T07:45:48.373Z,4.18
2022-12-28T07:46:48.236Z,4.12
2022-12-28T07:47:48.245Z,4.21
2022-12-28T07:48:48.219Z,4.27
2022-12-28T07:49:48.195Z,4.45
2022-12-28T07:50:48.192Z,4.36
2022-12-28T07:51:48.204Z,4.38
2022-12-28T07:52:48.239Z,4.36
2022-12-28T07:53:48.249Z,4.39
2022-12-28T07:54:51.239Z,4.39
2022-12-28T07:55:48.202Z,4.43
2022-12-28T07:56:48.223Z,4.36
2022-12-28T07:57:48.203Z,4.43
2022-12-28T07:59:51.228Z,4.43
2022-12-28T08:00:48.212Z,4.4
2022-12-28T08:01:48.695Z,4.42
2022-12-28T08:02:48.269Z,4.49
2022-12-28T08:03:48.402Z,4.5
2022-12-28T08:04:54.753Z,4.57
2022-12-28T08:05:50.975Z,4.53
2022-12-28T08:06:48.723Z,4.61
2022-12-28T08:07:48.229Z,4.56
2022-12-28T08:08:48.263Z,4.6
2022-12-28T08:09:48.255Z,4.58
2022-12-28T08:10:51.248Z,4.6
2022-12-28T08:11:48.239Z,4.63
2022-12-28T08:12:48.259Z,4.63
2022-12-28T08:13:48.238Z,4.67
2022-12-28T08:14:48.235Z,4.6
2022-12-28T08:15:48.348Z,4.7
2022-12-28T08:16:48.232Z,4.78
2022-12-28T08:17:48.239Z,4.75
2022-12-28T08:18:48.249Z,4.84
2022-12-28T08:19:48.280Z,4.82
2022-12-28T08:20:48.274Z,4.86
2022-12-28T08:21:51.306Z,4.83
2022-12-28T08:22:48.255Z,4.92
2022-12-28T08:23:48.246Z,4.97
2022-12-28T08:24:48.353Z,5
2022-12-28T08:25:48.260Z,5.02
2022-12-28T08:26:48.263Z,4.97
2022-12-28T08:27:48.270Z,5.12
2022-12-28T08:28:48.266Z,5.1
2022-12-28T08:29:48.266Z,5.08
2022-12-28T08:30:48.545Z,5.02
2022-12-28T08:31:48.301Z,5.18
2022-12-28T08:32:51.344Z,5.04
2022-12-28T08:33:48.263Z,5.18
2022-12-28T08:34:48.293Z,5.2
2022-12-28T08:35:48.300Z,5.13
2022-12-28T08:36:48.295Z,5.13
2022-12-28T08:37:48.269Z,5.16
2022-12-28T08:38:48.292Z,5.18
2022-12-28T08:39:48.289Z,5.16
2022-12-28T08:40:51.544Z,5.22
2022-12-28T08:41:48.323Z,5.19
2022-12-28T08:42:48.297Z,5.19
2022-12-28T08:43:51.298Z,5.23
2022-12-28T08:44:48.284Z,5.28
2022-12-28T08:45:48.444Z,5.34
2022-12-28T08:46:48.739Z,5.33
2022-12-28T08:47:48.285Z,5.36
2022-12-28T08:48:48.282Z,5.4
2022-12-28T08:49:48.313Z,5.38
2022-12-28T08:50:48.336Z,5.33
2022-12-28T08:51:48.329Z,5.36
2022-12-28T08:52:48.281Z,5.4
2022-12-28T08:53:48.335Z,5.43
2022-12-28T08:54:51.093Z,5.58
2022-12-28T08:55:48.292Z,5.52
2022-12-28T08:56:48.347Z,5.58
2022-12-28T08:57:48.325Z,5.58
2022-12-28T08:58:48.305Z,5.62
2022-12-28T08:59:48.327Z,5.72
2022-12-28T09:00:48.322Z,5.62
2022-12-28T09:01:49.892Z,5.81
2022-12-28T09:02:48.898Z,5.8
2022-12-28T09:03:48.641Z,5.79
2022-12-28T09:04:48.349Z,5.79
2022-12-28T09:05:56.684Z,5.81
2022-12-28T09:06:48.362Z,5.8
2022-12-28T09:07:48.350Z,6.01
2022-12-28T09:09:09.445Z,5.88
2022-12-28T09:09:48.460Z,5.98
2022-12-28T09:10:48.341Z,5.98
2022-12-28T09:11:48.309Z,6.1
2022-12-28T09:12:48.339Z,6.12
2022-12-28T09:13:48.326Z,6.05
2022-12-28T09:14:48.400Z,6.16
2022-12-28T09:15:48.473Z,6.09
2022-12-28T09:16:51.519Z,6.2
2022-12-28T09:17:48.345Z,6.2
2022-12-28T09:18:48.326Z,6.13
2022-12-28T09:19:48.353Z,6.2
2022-12-28T09:20:52.555Z,6.25
2022-12-28T09:21:48.367Z,6.29
2022-12-28T09:22:48.376Z,6.38
2022-12-28T09:23:48.380Z,6.41
2022-12-28T09:24:48.368Z,6.44
2022-12-28T09:25:48.529Z,6.38
2022-12-28T09:26:48.364Z,6.46
2022-12-28T09:27:56.067Z,6.5
2022-12-28T09:28:48.367Z,6.5
2022-12-28T09:29:48.369Z,6.54
2022-12-28T09:30:48.370Z,6.64
2022-12-28T09:31:48.549Z,6.64
2022-12-28T09:32:51.356Z,6.7
2022-12-28T09:34:43.485Z,6.71
2022-12-28T09:34:52.980Z,6.71
2022-12-28T09:35:52.975Z,6.78
2022-12-28T09:36:53.000Z,6.78
2022-12-28T09:37:52.971Z,6.87
2022-12-28T09:38:56.050Z,6.87
2022-12-28T09:39:55.552Z,6.77
2022-12-28T09:40:52.964Z,6.85
2022-12-28T09:41:52.976Z,6.92
2022-12-28T09:42:53.019Z,6.96
2022-12-28T09:43:53.046Z,7.03
2022-12-28T09:44:53.037Z,7.03
2022-12-28T09:45:52.990Z,7.01
2022-12-28T09:46:53.852Z,7.01
2022-12-28T09:47:52.984Z,6.95
2022-12-28T09:48:52.972Z,7.08
2022-12-28T09:49:53.013Z,7.14
2022-12-28T09:50:52.992Z,7.21
2022-12-28T09:51:52.987Z,7.15
2022-12-28T09:52:54.703Z,7.15
2022-12-28T09:53:52.995Z,7.23
2022-12-28T09:54:53.059Z,7.28
2022-12-28T09:55:52.994Z,7.37
2022-12-28T09:56:52.994Z,7.25
2022-12-28T09:57:53.005Z,7.32
2022-12-28T09:58:52.991Z,7.37
2022-12-28T09:59:53.042Z,7.36
2022-12-28T10:00:53.031Z,7.41
2022-12-28T10:01:53.429Z,7.41
2022-12-28T10:02:53.368Z,7.41
2022-12-28T10:03:53.004Z,7.44
2022-12-28T10:04:54.225Z,7.51
2022-12-28T10:05:55.847Z,7.41
2022-12-28T10:06:52.991Z,7.51
2022-12-28T10:07:53.085Z,7.48
2022-12-28T10:08:53.053Z,7.51
2022-12-28T10:09:53.061Z,7.56
2022-12-28T10:10:53.966Z,7.56
2022-12-28T10:11:53.006Z,7.58
2022-12-28T10:12:53.042Z,7.48
2022-12-28T10:14:01.033Z,7.53
2022-12-28T10:14:53.036Z,7.56
2022-12-28T10:15:53.225Z,7.66
2022-12-28T10:16:56.509Z,7.61
2022-12-28T10:17:53.034Z,7.56
2022-12-28T10:18:53.031Z,7.55
2022-12-28T10:19:53.079Z,7.64
2022-12-28T10:20:53.071Z,7.67
2022-12-28T10:21:56.177Z,7.72
2022-12-28T10:22:54.959Z,7.64
2022-12-28T10:24:37.291Z,7.7
2022-12-28T10:24:53.033Z,7.72
2022-12-28T10:25:53.007Z,7.64
2022-12-28T10:26:53.063Z,7.62
2022-12-28T10:27:53.045Z,7.69
2022-12-28T10:28:53.679Z,7.7
2022-12-28T10:29:53.072Z,7.74
2022-12-28T10:30:53.020Z,7.75
2022-12-28T10:31:53.100Z,7.75
2022-12-28T10:33:03.292Z,7.85
2022-12-28T10:33:53.041Z,7.9
2022-12-28T10:34:53.074Z,7.81
2022-12-28T10:35:53.051Z,7.93
2022-12-28T10:36:53.055Z,7.91
2022-12-28T10:37:53.042Z,7.99
2022-12-28T10:38:53.102Z,7.96
2022-12-28T10:39:53.119Z,8.03
2022-12-28T10:40:53.039Z,8.02
2022-12-28T10:41:53.057Z,8.02
2022-12-28T10:42:53.079Z,8.13
2022-12-28T10:44:41.489Z,8.27
2022-12-28T10:44:53.065Z,8.24
2022-12-28T10:45:53.050Z,8.18
2022-12-28T10:46:53.249Z,8.31
2022-12-28T10:47:53.079Z,8.28
2022-12-28T10:48:53.156Z,8.32
2022-12-28T10:50:39.268Z,8.44
2022-12-28T10:50:53.077Z,8.45
2022-12-28T10:51:53.066Z,8.52
2022-12-28T10:52:53.078Z,8.42
2022-12-28T10:53:53.063Z,8.5
2022-12-28T10:55:12.439Z,8.54
2022-12-28T10:55:53.087Z,8.56
2022-12-28T10:56:53.066Z,8.6
2022-12-28T10:58:39.535Z,8.74
2022-12-28T10:58:53.105Z,8.64
2022-12-28T10:59:53.142Z,8.74
2022-12-28T11:01:00.165Z,8.74
2022-12-28T11:01:53.811Z,8.78
2022-12-28T11:02:53.806Z,8.77
2022-12-28T11:03:53.227Z,8.77
2022-12-28T11:04:53.097Z,8.74
2022-12-28T11:06:01.991Z,8.81
2022-12-28T11:06:53.087Z,8.87
2022-12-28T11:07:53.087Z,8.9
2022-12-28T11:08:53.073Z,8.92
2022-12-28T11:09:53.108Z,8.87
2022-12-28T11:10:53.111Z,8.9
2022-12-28T11:11:53.073Z,8.99
2022-12-28T11:12:53.100Z,8.95
2022-12-28T11:13:53.091Z,9.11
2022-12-28T11:14:53.195Z,9.09
2022-12-28T11:15:53.171Z,9.12
2022-12-28T11:16:55.987Z,9.08
2022-12-28T11:17:53.090Z,9.16
2022-12-28T11:18:53.106Z,9.16
2022-12-28T11:19:53.155Z,9.15
2022-12-28T11:20:53.138Z,9.26
2022-12-28T11:21:53.104Z,9.24
2022-12-28T11:22:53.089Z,9.27
2022-12-28T11:23:53.107Z,9.26
2022-12-28T11:24:53.169Z,9.39
2022-12-28T11:25:53.175Z,9.44
2022-12-28T11:26:53.212Z,9.49
2022-12-28T11:27:56.109Z,9.47
2022-12-28T11:28:53.571Z,9.49
2022-12-28T11:29:53.451Z,9.47
2022-12-28T11:30:53.179Z,9.56
2022-12-28T11:31:54.310Z,9.55
2022-12-28T11:32:53.129Z,9.51
2022-12-28T11:33:53.122Z,9.62
2022-12-28T11:34:53.166Z,9.59
2022-12-28T11:35:56.172Z,9.62
2022-12-28T11:36:53.132Z,9.64
2022-12-28T11:37:53.112Z,9.74
2022-12-28T11:38:56.306Z,9.64
2022-12-28T11:39:53.168Z,9.69
2022-12-28T11:40:53.120Z,9.73
2022-12-28T11:42:41.824Z,9.66
2022-12-28T11:42:53.134Z,9.66
2022-12-28T11:43:56.231Z,9.72
2022-12-28T11:44:53.218Z,9.7
2022-12-28T11:45:53.467Z,9.7
2022-12-28T11:46:53.299Z,9.62
2022-12-28T11:47:53.137Z,9.59
2022-12-28T11:48:53.130Z,9.55
2022-12-28T11:49:55.951Z,9.56
2022-12-28T11:50:53.144Z,9.55
2022-12-28T11:51:53.180Z,9.67
2022-12-28T11:52:53.187Z,9.67
2022-12-28T11:53:53.175Z,9.7
2022-12-28T11:54:54.003Z,9.64
2022-12-28T11:55:53.161Z,9.7
2022-12-28T11:56:53.179Z,9.67
2022-12-28T11:57:53.172Z,9.66
2022-12-28T11:58:53.144Z,9.73
2022-12-28T11:59:53.175Z,9.67
2022-12-28T12:00:56.200Z,9.67
2022-12-28T12:01:53.329Z,9.54
2022-12-28T12:02:53.214Z,9.66
2022-12-28T12:03:53.160Z,9.59
2022-12-28T12:04:53.178Z,9.66
2022-12-28T12:05:55.954Z,9.59
2022-12-28T12:06:53.205Z,9.59
2022-12-28T12:07:53.210Z,9.63
2022-12-28T12:08:53.188Z,9.58
2022-12-28T12:09:53.221Z,9.62
2022-12-28T12:10:53.208Z,9.69
2022-12-28T12:11:53.237Z,9.59
2022-12-28T12:12:53.229Z,9.67
2022-12-28T12:13:53.255Z,9.67
2022-12-28T12:14:53.206Z,9.69
2022-12-28T12:15:53.181Z,9.67
2022-12-28T12:16:53.523Z,9.7
2022-12-28T12:17:53.189Z,9.64
2022-12-28T12:18:53.240Z,9.69
2022-12-28T12:19:53.226Z,9.73
2022-12-28T12:20:53.207Z,9.59
2022-12-28T12:21:53.177Z,9.67
2022-12-28T12:22:53.193Z,9.62
2022-12-28T12:23:53.232Z,9.72
2022-12-28T12:24:53.388Z,9.67
2022-12-28T12:25:53.226Z,9.67
2022-12-28T12:26:53.220Z,9.64
2022-12-28T12:27:53.209Z,9.62
2022-12-28T12:28:53.212Z,9.66
2022-12-28T12:29:53.329Z,9.69
2022-12-28T12:30:53.278Z,9.72
2022-12-28T12:31:53.292Z,9.59
2022-12-28T12:32:56.218Z,9.67
2022-12-28T12:33:53.231Z,9.62
2022-12-28T12:34:53.273Z,9.58
2022-12-28T12:35:53.192Z,9.52
2022-12-28T12:36:53.253Z,9.63
2022-12-28T12:37:53.527Z,9.58
2022-12-28T12:38:53.218Z,9.56
2022-12-28T12:39:53.282Z,9.56
2022-12-28T12:40:53.275Z,9.54
2022-12-28T12:41:53.211Z,9.56
2022-12-28T12:42:53.348Z,9.59
2022-12-28T12:43:56.227Z,9.56
2022-12-28T12:44:53.267Z,9.47
2022-12-28T12:45:53.495Z,9.56
2022-12-28T12:46:53.228Z,9.51
2022-12-28T12:47:53.245Z,9.49
2022-12-28T12:48:56.273Z,9.59
2022-12-28T12:49:53.267Z,9.48
2022-12-28T12:50:53.275Z,9.55
2022-12-28T12:51:53.260Z,9.62
2022-12-28T12:52:53.271Z,9.66
2022-12-28T12:53:53.735Z,9.59
2022-12-28T12:54:53.259Z,9.62
2022-12-28T12:55:53.256Z,9.67
2022-12-28T12:56:53.244Z,9.64
2022-12-28T12:57:53.265Z,9.74
2022-12-28T12:58:53.257Z,9.69
2022-12-28T12:59:53.784Z,9.69
2022-12-28T13:00:53.662Z,9.73
2022-12-28T13:01:53.755Z,9.72
2022-12-28T13:02:53.646Z,9.76
2022-12-28T13:03:53.263Z,9.73
2022-12-28T13:04:53.318Z,9.77
2022-12-28T13:05:53.247Z,9.81
2022-12-28T13:06:53.299Z,9.82
2022-12-28T13:07:53.253Z,9.88
2022-12-28T13:08:53.266Z,9.88
2022-12-28T13:09:53.308Z,10
2022-12-28T13:10:56.043Z,10
2022-12-28T13:11:53.275Z,9.97
2022-12-28T13:12:53.291Z,10.06
2022-12-28T13:13:53.268Z,10.06
2022-12-28T13:14:53.302Z,10.12
2022-12-28T13:15:53.464Z,10.23
2022-12-28T13:16:53.292Z,10.21
2022-12-28T13:18:05.027Z,10.25
2022-12-28T13:18:57.651Z,10.25
2022-12-28T13:19:57.726Z,10.31
2022-12-28T13:20:57.729Z,10.38
2022-12-28T13:21:57.692Z,10.38